createdAt,value
2024-05-09T00:01:29.710Z,15.50
2024-05-09T00:03:59.972Z,14.40
2024-05-09T00:06:30.186Z,13.80
2024-05-09T00:09:03.118Z,13.20
2024-05-09T00:11:33.412Z,13.00
2024-05-09T00:14:03.778Z,12.77
2024-05-09T00:16:34.002Z,13.60
2024-05-09T00:19:04.434Z,12.98
2024-05-09T00:21:34.702Z,13.93
2024-05-09T00:24:08.109Z,13.10
2024-05-09T00:26:38.437Z,12.32
2024-05-09T00:29:08.837Z,12.82
2024-05-09T00:31:39.149Z,12.90
2024-05-09T00:34:09.792Z,12.07
2024-05-09T00:36:40.200Z,16.20
2024-05-09T00:39:13.111Z,14.32
2024-05-09T00:41:43.388Z,13.07
2024-05-09T00:44:13.713Z,12.95
2024-05-09T00:46:44.520Z,11.63
2024-05-09T00:49:15.781Z,11.20
2024-05-09T00:51:46.097Z,12.70
2024-05-09T00:54:20.073Z,10.50
2024-05-09T00:56:52.625Z,11.35
2024-05-09T00:59:23.312Z,11.25
2024-05-09T01:01:53.849Z,10.77
2024-05-09T01:04:24.374Z,13.88
2024-05-09T01:06:54.675Z,11.07
2024-05-09T01:09:27.591Z,15.30
2024-05-09T01:11:57.927Z,15.73
2024-05-09T01:14:28.348Z,15.05
2024-05-09T01:16:58.872Z,14.13
2024-05-09T01:19:31.793Z,11.57
2024-05-09T01:22:02.354Z,14.70
2024-05-09T01:24:35.206Z,13.70
2024-05-09T01:27:05.530Z,13.05
2024-05-09T01:29:35.876Z,10.77
2024-05-09T01:32:06.414Z,10.07
2024-05-09T01:34:36.828Z,9.07
2024-05-09T01:37:07.597Z,8.82
2024-05-09T01:39:40.556Z,8.98
2024-05-09T01:42:10.782Z,8.68
2024-05-09T01:44:41.179Z,8.52
2024-05-09T01:47:11.614Z,10.73
2024-05-09T01:49:43.559Z,10.43
2024-05-09T01:52:13.988Z,9.25
2024-05-09T01:54:46.879Z,8.45
2024-05-09T01:57:17.232Z,9.23
2024-05-09T01:59:47.573Z,11.50
2024-05-09T02:02:18.000Z,7.57
2024-05-09T02:04:50.237Z,8.60
2024-05-09T02:07:20.791Z,9.02
2024-05-09T02:09:54.733Z,10.07
2024-05-09T02:12:25.172Z,9.65
2024-05-09T02:14:55.506Z,10.20
2024-05-09T02:17:25.898Z,9.43
2024-05-09T02:19:56.258Z,12.35
2024-05-09T02:22:26.472Z,8.57
2024-05-09T02:24:59.369Z,10.02
2024-05-09T02:27:29.581Z,10.25
2024-05-09T02:29:59.719Z,9.35
2024-05-09T02:32:30.116Z,8.73
2024-05-09T02:35:00.533Z,9.10
2024-05-09T02:37:28.069Z,10.40
2024-05-09T02:40:00.957Z,11.38
2024-05-09T02:42:28.485Z,11.25
2024-05-09T02:44:58.625Z,13.38
2024-05-09T02:47:26.237Z,9.95
2024-05-09T02:49:56.676Z,9.32
2024-05-09T02:52:24.236Z,10.15
2024-05-09T02:54:54.363Z,9.07
2024-05-09T02:57:24.538Z,8.65
2024-05-09T02:59:54.893Z,8.00
2024-05-09T03:02:22.597Z,7.75
2024-05-09T03:04:52.854Z,8.52
2024-05-09T03:07:20.490Z,9.05
2024-05-09T03:09:50.706Z,8.55
2024-05-09T03:12:18.260Z,9.70
2024-05-09T03:14:53.109Z,8.73
2024-05-09T03:17:20.784Z,8.48
2024-05-09T03:19:51.072Z,7.65
2024-05-09T03:22:18.674Z,8.73
2024-05-09T03:24:48.905Z,8.30
2024-05-09T03:27:16.478Z,8.00
2024-05-09T03:29:46.699Z,8.50
2024-05-09T03:32:17.072Z,9.70
2024-05-09T03:34:47.501Z,7.60
2024-05-09T03:37:17.810Z,8.02
2024-05-09T03:39:48.024Z,7.95
2024-05-09T03:42:18.249Z,8.13
2024-05-09T03:44:48.401Z,7.38
2024-05-09T03:47:18.745Z,7.47
2024-05-09T03:49:49.090Z,7.40
2024-05-09T03:52:19.367Z,6.63
2024-05-09T03:54:47.140Z,7.30
2024-05-09T03:57:17.400Z,7.18
2024-05-09T03:59:44.869Z,7.32
2024-05-09T04:02:15.222Z,6.82
2024-05-09T04:04:45.530Z,6.45
2024-05-09T04:07:16.818Z,6.97
2024-05-09T04:09:44.350Z,6.30
2024-05-09T04:12:14.643Z,6.65
2024-05-09T04:14:43.077Z,6.25
2024-05-09T04:17:13.299Z,6.43
2024-05-09T04:19:40.915Z,6.00
2024-05-09T04:22:13.986Z,6.63
2024-05-09T04:24:41.535Z,6.35
2024-05-09T04:27:11.766Z,6.55
2024-05-09T04:29:40.810Z,6.55
2024-05-09T04:32:11.391Z,6.70
2024-05-09T04:34:38.940Z,7.18
2024-05-09T04:37:09.191Z,6.97
2024-05-09T04:39:39.359Z,6.72
2024-05-09T04:42:09.602Z,7.60
2024-05-09T04:44:39.074Z,7.60
2024-05-09T04:47:09.285Z,7.78
2024-05-09T04:49:36.978Z,8.32
2024-05-09T04:52:07.536Z,8.27
2024-05-09T04:54:36.627Z,8.95
2024-05-09T04:57:09.884Z,7.70
2024-05-09T04:59:37.553Z,8.93
2024-05-09T05:02:08.139Z,10.40
2024-05-09T05:04:35.686Z,9.93
2024-05-09T05:07:05.960Z,10.68
2024-05-09T05:09:33.489Z,9.88
2024-05-09T05:12:23.867Z,10.23
2024-05-09T05:14:54.132Z,10.15
2024-05-09T05:17:24.442Z,11.35
2024-05-09T05:19:52.298Z,10.18
2024-05-09T05:22:22.634Z,10.77
2024-05-09T05:24:50.100Z,12.02
2024-05-09T05:27:20.285Z,11.07
2024-05-09T05:29:47.886Z,12.68
2024-05-09T05:32:21.015Z,12.55
2024-05-09T05:34:48.724Z,10.80
2024-05-09T05:37:18.954Z,12.90
2024-05-09T05:39:46.492Z,13.32
2024-05-09T05:42:17.232Z,13.27
2024-05-09T05:44:44.785Z,14.25
2024-05-09T05:47:15.032Z,14.82
2024-05-09T05:49:45.414Z,14.80
2024-05-09T05:52:15.752Z,15.27
2024-05-09T05:54:43.298Z,14.38
2024-05-09T05:57:13.882Z,14.57
2024-05-09T05:59:41.516Z,15.75
2024-05-09T06:02:13.970Z,15.13
2024-05-09T06:04:42.677Z,15.73
2024-05-09T06:07:15.648Z,14.77
2024-05-09T06:09:44.769Z,15.15
2024-05-09T06:12:16.428Z,14.85
2024-05-09T06:14:44.468Z,14.75
2024-05-09T06:17:14.722Z,15.55
2024-05-09T06:19:42.336Z,14.77
2024-05-09T06:22:15.199Z,15.30
2024-05-09T06:24:43.106Z,14.80
2024-05-09T06:27:13.248Z,13.95
2024-05-09T06:29:40.879Z,16.13
2024-05-09T06:32:11.277Z,15.25
2024-05-09T06:34:38.951Z,16.35
2024-05-09T06:37:09.339Z,15.02
2024-05-09T06:39:39.553Z,16.67
2024-05-09T06:42:09.809Z,14.98
2024-05-09T06:44:37.384Z,15.18
2024-05-09T06:47:08.020Z,14.30
2024-05-09T06:49:35.858Z,14.60
2024-05-09T06:52:06.411Z,14.18
2024-05-09T06:54:33.956Z,14.25
2024-05-09T06:57:07.325Z,13.68
2024-05-09T06:59:34.892Z,12.80
2024-05-09T07:02:05.976Z,12.07
2024-05-09T07:04:36.314Z,12.70
2024-05-09T07:07:04.548Z,12.70
2024-05-09T07:09:34.819Z,13.07
2024-05-09T07:12:07.020Z,12.25
2024-05-09T07:14:38.386Z,12.48
2024-05-09T07:17:07.435Z,12.45
2024-05-09T07:19:37.896Z,12.10
2024-05-09T07:22:05.555Z,11.50
2024-05-09T07:24:35.894Z,11.65
2024-05-09T07:27:06.321Z,10.70
2024-05-09T07:29:38.453Z,10.40
2024-05-09T07:32:07.338Z,10.57
2024-05-09T07:34:37.744Z,10.32
2024-05-09T07:37:06.365Z,11.07
2024-05-09T07:39:36.586Z,11.35
2024-05-09T07:42:06.877Z,11.73
2024-05-09T07:44:37.228Z,11.30
2024-05-09T07:48:14.392Z,10.48
2024-05-09T07:55:02.945Z,9.27
2024-05-09T07:57:33.372Z,10.13
2024-05-09T08:00:04.552Z,9.70
2024-05-09T08:02:32.351Z,9.40
2024-05-09T08:05:02.922Z,9.27
2024-05-09T08:07:31.674Z,9.45
2024-05-09T08:10:01.979Z,9.82
2024-05-09T08:12:29.615Z,9.48
2024-05-09T08:15:03.588Z,9.38
2024-05-09T08:17:31.240Z,8.32
2024-05-09T08:20:05.409Z,9.00
2024-05-09T08:22:33.441Z,9.05
2024-05-09T08:25:03.646Z,9.13
2024-05-09T08:27:31.316Z,8.75
2024-05-09T08:30:04.902Z,8.50
2024-05-09T08:32:35.107Z,8.60
2024-05-09T08:35:05.495Z,8.57
2024-05-09T08:37:37.912Z,9.15
2024-05-09T08:40:23.469Z,8.68
2024-05-09T08:42:57.783Z,8.80
2024-05-09T08:45:30.971Z,7.95
2024-05-09T08:48:01.579Z,8.68
2024-05-09T08:50:38.136Z,8.77
2024-05-09T08:53:07.583Z,8.70
2024-05-09T08:55:41.964Z,9.82
2024-05-09T08:58:16.232Z,10.52
2024-05-09T09:00:50.319Z,9.98
2024-05-09T09:03:19.680Z,9.38
2024-05-09T09:05:57.131Z,9.60
2024-05-09T09:08:26.588Z,8.90
2024-05-09T09:10:59.410Z,8.25
2024-05-09T09:13:27.948Z,8.63
2024-05-09T09:16:03.162Z,8.48
2024-05-09T09:18:31.172Z,8.40
2024-05-09T09:21:02.518Z,9.30
2024-05-09T09:23:30.655Z,7.93
2024-05-09T09:26:02.443Z,9.30
2024-05-09T09:28:30.284Z,9.40
2024-05-09T09:31:07.303Z,9.00
2024-05-09T09:33:36.332Z,8.88
2024-05-09T09:36:08.994Z,9.35
2024-05-09T09:38:38.067Z,8.93
2024-05-09T09:41:10.957Z,8.77
2024-05-09T09:43:40.515Z,9.80
2024-05-09T09:46:15.201Z,9.05
2024-05-09T09:48:44.269Z,8.80
2024-05-09T09:51:14.879Z,9.20
2024-05-09T09:53:44.127Z,8.55
2024-05-09T09:56:14.902Z,8.88
2024-05-09T09:58:43.992Z,7.90
2024-05-09T10:01:17.048Z,9.25
2024-05-09T10:03:45.788Z,8.70
2024-05-09T10:06:17.233Z,7.72
2024-05-09T10:08:46.458Z,8.63
2024-05-09T10:11:16.794Z,8.27
2024-05-09T10:13:44.810Z,7.65
2024-05-09T10:16:24.635Z,7.30
2024-05-09T10:18:52.637Z,7.25
2024-05-09T10:21:24.088Z,7.03
2024-05-09T10:23:58.231Z,6.70
2024-05-09T10:26:35.907Z,7.00
2024-05-09T10:29:12.330Z,7.30
2024-05-09T10:31:48.479Z,7.60
2024-05-09T10:34:20.084Z,7.80
2024-05-09T10:36:55.730Z,7.30
2024-05-09T10:39:25.071Z,7.40
2024-05-09T10:41:55.307Z,6.55
2024-05-09T10:44:22.835Z,7.28
2024-05-09T10:46:56.512Z,6.82
2024-05-09T10:49:24.294Z,6.32
2024-05-09T10:51:55.725Z,6.05
2024-05-09T10:54:23.240Z,7.47
2024-05-09T10:56:59.580Z,8.57
2024-05-09T10:59:33.492Z,8.15
2024-05-09T11:02:07.990Z,7.32
2024-05-09T11:04:37.144Z,6.55
2024-05-09T11:07:11.624Z,7.28
2024-05-09T11:09:39.865Z,7.70
2024-05-09T11:12:10.934Z,7.40
2024-05-09T11:14:38.629Z,7.15
2024-05-09T11:17:11.607Z,6.90
2024-05-09T11:19:40.265Z,7.47
2024-05-09T11:22:11.048Z,7.28
2024-05-09T11:24:38.754Z,6.95
2024-05-09T11:27:09.327Z,6.80
2024-05-09T11:29:38.372Z,7.53
2024-05-09T11:32:13.890Z,7.43
2024-05-09T11:34:42.497Z,6.97
2024-05-09T11:37:13.997Z,6.65
2024-05-09T11:39:41.678Z,6.65
2024-05-09T11:42:11.929Z,7.93
2024-05-09T11:44:39.487Z,7.63
2024-05-09T11:47:12.495Z,7.30
2024-05-09T11:49:40.165Z,6.80
2024-05-09T11:52:10.346Z,7.32
2024-05-09T11:54:37.999Z,7.15
2024-05-09T11:57:09.657Z,7.88
2024-05-09T11:59:37.217Z,7.50
2024-05-09T12:02:07.798Z,7.93
2024-05-09T12:04:38.274Z,7.93
2024-05-09T12:07:11.323Z,7.72
2024-05-09T12:09:39.874Z,8.10
2024-05-09T12:12:10.217Z,8.48
2024-05-09T12:14:37.746Z,8.88
2024-05-09T12:17:08.456Z,8.10
2024-05-09T12:19:38.890Z,8.65
2024-05-09T12:22:09.338Z,8.40
2024-05-09T12:24:37.318Z,8.30
2024-05-09T12:27:08.135Z,8.25
2024-05-09T12:29:38.292Z,8.00
2024-05-09T12:32:09.628Z,7.70
2024-05-09T12:34:39.945Z,8.40
2024-05-09T12:37:10.559Z,8.00
2024-05-09T12:39:38.212Z,7.95
2024-05-09T12:42:09.775Z,7.57
2024-05-09T12:44:38.680Z,9.07
2024-05-09T12:47:08.939Z,8.50
2024-05-09T12:49:36.721Z,9.00
2024-05-09T12:52:10.357Z,8.50
2024-05-09T12:54:38.040Z,8.30
2024-05-09T12:57:11.464Z,8.15
2024-05-09T12:59:39.071Z,7.63
2024-05-09T13:02:09.570Z,7.95
2024-05-09T13:04:38.055Z,7.25
2024-05-09T13:07:11.387Z,7.50
2024-05-09T13:09:39.026Z,7.38
2024-05-09T13:12:09.614Z,7.90
2024-05-09T13:14:37.501Z,8.05
2024-05-09T13:17:08.128Z,7.95
2024-05-09T13:19:35.725Z,7.70
2024-05-09T13:22:06.047Z,8.13
2024-05-09T13:24:36.526Z,7.85
2024-05-09T13:27:07.047Z,7.10
2024-05-09T13:29:34.744Z,7.57
2024-05-09T13:32:04.930Z,7.38
2024-05-09T13:34:32.459Z,7.50
2024-05-09T13:37:02.711Z,7.68
2024-05-09T13:39:30.954Z,7.38
2024-05-09T13:42:04.255Z,8.30
2024-05-09T13:44:31.815Z,8.82
2024-05-09T13:47:02.200Z,8.20
2024-05-09T13:49:29.789Z,7.68
2024-05-09T13:52:00.031Z,7.55
2024-05-09T13:54:27.629Z,7.03
2024-05-09T13:57:00.974Z,6.45
2024-05-09T13:59:31.236Z,7.20
2024-05-09T14:02:01.797Z,7.40
2024-05-09T14:04:29.537Z,6.60
2024-05-09T14:06:59.884Z,6.22
2024-05-09T14:09:28.313Z,6.57
2024-05-09T14:11:58.619Z,7.03
2024-05-09T14:14:32.193Z,6.80
2024-05-09T14:17:02.659Z,7.15
2024-05-09T14:19:30.398Z,5.97
2024-05-09T14:22:00.619Z,6.55
2024-05-09T14:24:28.380Z,5.50
2024-05-09T14:26:58.607Z,6.20
2024-05-09T14:29:26.232Z,6.63
2024-05-09T14:31:59.166Z,6.15
2024-05-09T14:34:28.035Z,6.03
2024-05-09T14:36:59.036Z,6.53
2024-05-09T14:39:26.581Z,6.45
2024-05-09T14:41:56.760Z,5.47
2024-05-09T14:44:24.309Z,7.32
2024-05-09T14:46:54.516Z,6.13
2024-05-09T14:49:24.810Z,6.85
2024-05-09T14:51:55.141Z,5.97
2024-05-09T14:54:22.685Z,6.10
2024-05-09T14:56:54.917Z,7.05
2024-05-09T14:59:23.048Z,6.45
2024-05-09T15:01:53.288Z,7.32
2024-05-09T15:04:23.773Z,6.93
2024-05-09T15:06:54.859Z,6.13
2024-05-09T15:09:22.381Z,6.90
2024-05-09T15:11:52.562Z,6.22
2024-05-09T15:14:20.589Z,7.13
2024-05-09T15:16:51.987Z,7.00
2024-05-09T15:19:19.891Z,6.95
2024-05-09T15:21:53.075Z,8.20
2024-05-09T15:24:20.559Z,8.73
2024-05-09T15:26:51.430Z,8.02
2024-05-09T15:29:19.023Z,8.68
2024-05-09T15:31:49.235Z,8.55
2024-05-09T15:34:16.844Z,9.05
2024-05-09T15:36:51.139Z,8.35
2024-05-09T15:39:21.573Z,10.02
2024-05-09T15:41:53.089Z,8.68
2024-05-09T15:44:20.623Z,9.32
2024-05-09T15:46:51.231Z,10.02
2024-05-09T15:49:19.093Z,8.70
2024-05-09T15:51:49.421Z,8.27
2024-05-09T15:54:21.531Z,7.80
2024-05-09T15:56:52.467Z,10.02
2024-05-09T15:59:24.126Z,9.40
2024-05-09T16:01:51.723Z,9.07
2024-05-09T16:04:22.472Z,8.18
2024-05-09T16:06:50.193Z,8.75
2024-05-09T16:09:21.294Z,8.25
2024-05-09T16:11:51.574Z,8.40
2024-05-09T16:14:21.831Z,8.35
2024-05-09T16:16:51.331Z,9.05
2024-05-09T16:19:21.964Z,9.55
2024-05-09T16:21:49.629Z,10.18
2024-05-09T16:24:19.827Z,9.70
2024-05-09T16:26:47.410Z,11.55
2024-05-09T16:29:20.455Z,12.70
2024-05-09T16:31:48.126Z,11.32
2024-05-09T16:34:18.540Z,12.23
2024-05-09T16:36:46.302Z,11.27
2024-05-09T16:39:16.507Z,11.55
2024-05-09T16:41:44.086Z,11.98
2024-05-09T16:44:14.302Z,10.88
2024-05-09T16:46:44.619Z,12.05
2024-05-09T16:49:15.134Z,10.93
2024-05-09T16:51:42.715Z,10.65
2024-05-09T16:54:12.929Z,10.05
2024-05-09T16:56:40.537Z,10.90
2024-05-09T16:59:10.705Z,10.15
2024-05-09T17:01:38.307Z,10.60
2024-05-09T17:04:11.522Z,11.70
2024-05-09T17:06:39.361Z,11.15
2024-05-09T17:09:11.975Z,11.18
2024-05-09T17:11:45.723Z,11.52
2024-05-09T17:14:16.163Z,11.38
2024-05-09T17:16:43.772Z,10.75
2024-05-09T17:19:17.351Z,10.93
2024-05-09T17:21:44.892Z,10.32
2024-05-09T17:24:15.186Z,10.68
2024-05-09T17:26:42.818Z,10.43
2024-05-09T17:29:13.133Z,11.23
2024-05-09T17:31:40.719Z,11.57
2024-05-09T17:34:11.155Z,10.85
2024-05-09T17:36:41.601Z,11.50
2024-05-09T17:39:11.818Z,11.13
2024-05-09T17:41:42.037Z,10.80
2024-05-09T17:44:09.705Z,11.35
2024-05-09T17:46:40.068Z,12.10
2024-05-09T17:49:07.675Z,12.75
2024-05-09T17:51:38.451Z,11.82
2024-05-09T17:54:08.701Z,11.68
2024-05-09T17:56:38.957Z,11.25
2024-05-09T17:59:09.291Z,13.07
2024-05-09T18:01:41.158Z,12.55
2024-05-09T18:04:08.971Z,12.40
2024-05-09T18:06:39.302Z,11.52
2024-05-09T18:09:09.724Z,12.45
2024-05-09T18:11:40.723Z,12.05
2024-05-09T18:14:08.485Z,11.82
2024-05-09T18:16:38.732Z,11.57
2024-05-09T18:19:06.493Z,12.05
2024-05-09T18:21:36.782Z,10.98
2024-05-09T18:24:04.545Z,11.13
2024-05-09T18:26:37.441Z,11.52
2024-05-09T18:29:05.344Z,11.27
2024-05-09T18:31:35.601Z,10.82
2024-05-09T18:34:03.287Z,12.05
2024-05-09T18:36:34.378Z,11.30
2024-05-09T18:39:01.980Z,10.70
2024-05-09T18:41:32.345Z,11.82
2024-05-09T18:44:02.580Z,12.02
2024-05-09T18:46:32.918Z,10.93
2024-05-09T18:49:00.719Z,11.20
2024-05-09T18:51:31.183Z,10.18
2024-05-09T18:53:58.829Z,9.98
2024-05-09T18:56:29.216Z,9.38
2024-05-09T18:58:56.719Z,10.18
2024-05-09T19:01:29.774Z,9.65
2024-05-09T19:03:57.468Z,10.02
2024-05-09T19:06:27.881Z,9.15
2024-05-09T19:08:55.686Z,9.32
2024-05-09T19:11:26.371Z,9.30
2024-05-09T19:13:53.966Z,8.63
2024-05-09T19:16:24.422Z,8.55
2024-05-09T19:18:55.805Z,8.45
2024-05-09T19:21:26.172Z,9.32
2024-05-09T19:23:55.588Z,8.52
2024-05-09T19:26:26.413Z,8.35
2024-05-09T19:28:54.029Z,9.07
2024-05-09T19:31:24.319Z,8.77
2024-05-09T19:33:54.667Z,8.05
2024-05-09T19:36:25.758Z,8.55
2024-05-09T19:38:53.454Z,9.10
2024-05-09T19:41:23.648Z,8.95
2024-05-09T19:43:51.167Z,9.00
2024-05-09T19:46:21.529Z,9.30
2024-05-09T19:48:52.111Z,9.07
2024-05-09T19:51:22.392Z,9.48
2024-05-09T19:53:55.188Z,9.23
2024-05-09T19:56:23.022Z,9.40
2024-05-09T19:58:53.259Z,8.88
2024-05-09T20:01:20.987Z,9.25
2024-05-09T20:03:51.605Z,9.18
2024-05-09T20:06:24.524Z,9.05
2024-05-09T20:08:57.290Z,8.40
2024-05-09T20:11:26.159Z,8.57
2024-05-09T20:13:57.093Z,8.73
2024-05-09T20:16:24.918Z,9.13
2024-05-09T20:18:55.394Z,8.70
2024-05-09T20:21:25.697Z,10.00
2024-05-09T20:23:55.838Z,9.38
2024-05-09T20:26:23.487Z,9.73
2024-05-09T20:28:55.040Z,9.98
2024-05-09T20:31:22.713Z,9.43
2024-05-09T20:33:53.044Z,9.00
2024-05-09T20:36:20.640Z,10.07
2024-05-09T20:38:53.569Z,9.85
2024-05-09T20:41:21.060Z,9.63
2024-05-09T20:43:51.224Z,9.73
2024-05-09T20:46:18.944Z,10.00
2024-05-09T20:48:49.531Z,9.30
2024-05-09T20:51:17.100Z,10.10
2024-05-09T20:53:47.303Z,9.82
2024-05-09T20:56:17.551Z,9.63
2024-05-09T20:58:47.781Z,9.20
2024-05-09T21:01:15.383Z,9.10
2024-05-09T21:03:45.807Z,10.00
2024-05-09T21:06:13.420Z,9.60
2024-05-09T21:08:44.790Z,9.35
2024-05-09T21:11:12.324Z,8.57
2024-05-09T21:13:45.345Z,9.35
2024-05-09T21:16:13.005Z,9.55
2024-05-09T21:18:43.399Z,8.80
2024-05-09T21:21:11.002Z,8.73
2024-05-09T21:23:41.144Z,9.35
2024-05-09T21:26:08.664Z,9.73
2024-05-09T21:28:38.974Z,8.60
2024-05-09T21:31:09.483Z,8.57
2024-05-09T21:33:39.856Z,8.63
2024-05-09T21:36:09.686Z,9.77
2024-05-09T21:38:43.158Z,9.68
2024-05-09T21:41:10.768Z,9.05
2024-05-09T21:43:41.471Z,9.55
2024-05-09T21:46:11.748Z,8.57
2024-05-09T21:48:42.040Z,8.85
2024-05-09T21:51:13.775Z,8.90
2024-05-09T21:53:44.159Z,9.10
2024-05-09T21:56:11.834Z,8.60
2024-05-09T21:58:41.982Z,8.73
2024-05-09T22:01:12.313Z,9.13
2024-05-09T22:03:42.654Z,8.82
2024-05-09T22:06:10.372Z,9.82
2024-05-09T22:08:40.477Z,9.55
2024-05-09T22:11:08.271Z,9.07
2024-05-09T22:13:38.523Z,9.57
2024-05-09T22:16:07.224Z,9.07
2024-05-09T22:18:40.264Z,9.27
2024-05-09T22:21:07.787Z,9.27
2024-05-09T22:23:38.040Z,8.80
2024-05-09T22:26:05.783Z,9.70
2024-05-09T22:28:35.986Z,16.08
2024-05-09T22:31:03.779Z,11.13
2024-05-09T22:33:34.189Z,10.27
2024-05-09T22:36:07.271Z,9.85
2024-05-09T22:38:37.510Z,10.38
2024-05-09T22:41:06.851Z,10.35
2024-05-09T22:43:37.057Z,10.75
2024-05-09T22:46:04.862Z,10.02
2024-05-09T22:48:35.333Z,10.63
2024-05-09T22:51:06.071Z,9.48
2024-05-09T22:53:36.324Z,9.43
2024-05-09T22:56:03.912Z,10.60
2024-05-09T22:58:34.610Z,9.52
2024-05-09T23:01:02.467Z,8.63
2024-05-09T23:03:33.074Z,10.38
2024-05-09T23:06:00.692Z,9.20
2024-05-09T23:08:33.541Z,9.63
2024-05-09T23:11:01.283Z,9.60
2024-05-09T23:13:31.639Z,9.82
2024-05-09T23:15:59.216Z,10.07
2024-05-09T23:18:29.578Z,9.73
2024-05-09T23:20:57.188Z,9.75
2024-05-09T23:23:27.420Z,10.23
2024-05-09T23:25:57.613Z,10.20
2024-05-09T23:28:27.969Z,9.80
2024-05-09T23:30:55.682Z,9.02
2024-05-09T23:33:25.977Z,9.13
2024-05-09T23:35:53.759Z,12.00
2024-05-09T23:38:24.926Z,11.45
2024-05-09T23:40:52.479Z,11.43
2024-05-09T23:43:25.623Z,12.00
2024-05-09T23:45:53.301Z,13.73
2024-05-09T23:48:23.649Z,13.90
2024-05-09T23:50:51.244Z,15.85
2024-05-09T23:53:21.736Z,17.95
2024-05-09T23:55:49.246Z,20.58
2024-05-09T23:58:19.512Z,19.55
